Beaver Cove, Canada
Current Conditions -  °F | °C
As of 1:00 PM on Thursday 20 Nov 2014 (Local Time) from CYZT Reporting Station
Rain Showers Rain Showers  
Wind Chill: 41°   Ceiling: 3600
Heat Index: 48°   Visibility: 20mi
Dew Point: 45°   Wind: 20mph
Humidity: 87%   Direction: 120°ESE
Pressure: 29.68"   Gusts: 29mph
Location:  50.53°N, 126.87°W
Report Text: CYZT 202100Z 12017G25KT 20SM -SHRA BKN036 OVC060 09/07 A2968 RMK SC7SC1 SLP052
Loading
Personal Weather Stations






























Interactive Weather Map New forecast layout! Learn more

10-Day Weather Forecast

Advertisements
Track Severe Weather on mobile